createdAt,value
2019-05-19T00:05:35.006Z,13.27
2019-05-19T00:08:24.736Z,13.41
2019-05-19T00:11:07.270Z,13.38
2019-05-19T00:13:57.079Z,13.30
2019-05-19T00:16:46.875Z,13.10
2019-05-19T00:19:36.685Z,13.02
2019-05-19T00:22:26.611Z,12.54
2019-05-19T00:28:20.102Z,12.43
2019-05-19T00:31:03.577Z,12.26
2019-05-19T00:33:53.341Z,12.39
2019-05-19T00:36:43.207Z,12.53
2019-05-19T00:39:32.987Z,12.79
2019-05-19T00:42:22.767Z,12.41
2019-05-19T00:45:06.833Z,12.64
2019-05-19T00:47:56.597Z,12.66
2019-05-19T00:50:46.369Z,12.79
2019-05-19T00:53:36.091Z,12.62
2019-05-19T00:56:26.171Z,12.64
2019-05-19T00:59:16.091Z,12.71
2019-05-19T01:02:24.974Z,12.52
2019-05-19T01:05:14.823Z,12.32
2019-05-19T01:08:04.532Z,11.96
2019-05-19T01:10:54.309Z,11.88
2019-05-19T01:13:36.484Z,11.56
2019-05-19T01:16:26.193Z,11.77
2019-05-19T01:19:08.963Z,12.14
2019-05-19T01:25:16.569Z,12.45
2019-05-19T01:28:06.333Z,12.40
2019-05-19T01:30:56.165Z,12.21
2019-05-19T01:33:45.977Z,12.56
2019-05-19T01:36:35.791Z,12.76
2019-05-19T01:39:25.582Z,12.75
2019-05-19T01:42:15.429Z,12.65
2019-05-19T01:45:24.371Z,12.75
2019-05-19T01:48:06.487Z,12.70
2019-05-19T01:50:50.958Z,13.04
2019-05-19T01:56:44.365Z,12.96
2019-05-19T01:59:26.297Z,12.96
2019-05-19T02:02:16.108Z,12.96
2019-05-19T02:05:05.982Z,12.90
2019-05-19T02:07:55.735Z,12.81
2019-05-19T02:16:30.365Z,12.75
2019-05-19T02:19:20.080Z,12.74
2019-05-19T02:22:09.852Z,12.56
2019-05-19T02:24:59.635Z,12.67
2019-05-19T02:27:49.945Z,12.60
2019-05-19T02:30:52.926Z,12.72
2019-05-19T02:33:35.999Z,12.52
2019-05-19T02:36:25.784Z,12.58
2019-05-19T02:39:09.173Z,12.52
2019-05-19T02:45:16.888Z,12.44
2019-05-19T02:48:07.004Z,12.43
2019-05-19T02:50:56.941Z,12.42
2019-05-19T02:54:07.324Z,12.34
2019-05-19T02:56:57.327Z,12.41
2019-05-19T02:59:41.953Z,12.33
2019-05-19T03:02:24.027Z,12.40
2019-05-19T03:05:13.904Z,12.43
2019-05-19T03:08:22.720Z,12.44
2019-05-19T03:11:12.502Z,12.37
2019-05-19T03:17:10.859Z,12.36
2019-05-19T03:19:53.390Z,12.29
2019-05-19T03:22:43.098Z,12.32
2019-05-19T03:25:32.807Z,12.34
2019-05-19T03:28:22.470Z,12.38
2019-05-19T03:31:31.042Z,12.46
2019-05-19T03:34:13.490Z,12.50
2019-05-19T03:37:03.184Z,12.55
2019-05-19T03:39:45.722Z,12.62
2019-05-19T03:42:35.787Z,12.60
2019-05-19T03:45:18.713Z,12.59
2019-05-19T03:47:49.367Z,12.63
2019-05-19T03:50:39.077Z,12.76
2019-05-19T03:53:21.717Z,12.70
2019-05-19T03:56:11.519Z,12.52
2019-05-19T03:59:01.302Z,12.73
2019-05-19T04:01:51.051Z,12.76
2019-05-19T04:04:40.860Z,12.78
2019-05-19T04:07:30.948Z,12.79
2019-05-19T04:10:20.697Z,12.75
2019-05-19T04:13:10.632Z,12.80
2019-05-19T04:16:00.380Z,12.79
2019-05-19T04:18:50.145Z,12.78
2019-05-19T04:21:48.579Z,12.82
2019-05-19T04:27:28.112Z,13.01
2019-05-19T04:30:17.841Z,13.05
2019-05-19T04:33:00.727Z,13.03
2019-05-19T04:35:50.471Z,12.83
2019-05-19T04:38:33.109Z,12.76
2019-05-19T04:41:22.955Z,12.67
2019-05-19T04:44:05.747Z,12.63
2019-05-19T04:47:14.624Z,12.93
2019-05-19T04:50:04.575Z,12.88
2019-05-19T04:52:54.368Z,13.01
2019-05-19T04:55:44.099Z,13.11
2019-05-19T04:58:26.942Z,13.09
2019-05-19T05:01:16.651Z,13.18
2019-05-19T05:04:06.378Z,13.16
2019-05-19T05:07:14.883Z,13.28
2019-05-19T05:09:56.744Z,13.26
2019-05-19T05:12:46.417Z,13.37
2019-05-19T05:15:28.640Z,13.36
2019-05-19T05:18:18.353Z,13.22
2019-05-19T05:21:00.444Z,13.23
2019-05-19T05:23:50.174Z,13.11
2019-05-19T05:26:32.918Z,13.19
2019-05-19T05:29:22.634Z,13.14
2019-05-19T05:32:06.499Z,13.17
2019-05-19T05:34:56.171Z,13.06
2019-05-19T05:37:38.827Z,13.15
2019-05-19T05:40:47.649Z,12.99
2019-05-19T05:43:29.782Z,13.18
2019-05-19T05:46:19.500Z,13.19
2019-05-19T05:49:02.161Z,13.29
2019-05-19T05:51:51.870Z,13.29
2019-05-19T05:54:33.984Z,13.30
2019-05-19T05:57:23.723Z,13.22
2019-05-19T06:00:06.166Z,13.36
2019-05-19T06:02:36.867Z,13.33
2019-05-19T06:05:26.585Z,13.31
2019-05-19T06:08:08.824Z,13.38
2019-05-19T06:10:58.638Z,13.43
2019-05-19T06:13:49.736Z,13.51
2019-05-19T06:16:34.323Z,13.62
2019-05-19T06:19:24.040Z,13.77
2019-05-19T06:22:06.884Z,13.84
2019-05-19T06:25:08.893Z,13.80
2019-05-19T06:27:51.833Z,14.02
2019-05-19T06:30:41.538Z,14.24
2019-05-19T06:33:24.272Z,14.14
2019-05-19T06:36:14.005Z,14.33
2019-05-19T06:38:56.883Z,14.55
2019-05-19T06:41:27.525Z,14.67
2019-05-19T06:44:17.264Z,14.81
2019-05-19T06:47:00.921Z,14.89
2019-05-19T06:49:43.588Z,14.93
2019-05-19T06:52:33.367Z,15.08
2019-05-19T06:55:23.217Z,15.00
2019-05-19T06:58:13.196Z,15.06
2019-05-19T07:00:58.520Z,14.79
2019-05-19T07:03:46.813Z,14.85
2019-05-19T07:06:29.167Z,14.68
2019-05-19T07:09:18.920Z,14.76
2019-05-19T07:12:01.447Z,14.71
2019-05-19T07:15:10.265Z,14.46
2019-05-19T07:18:00.115Z,14.60
2019-05-19T07:20:42.133Z,14.87
2019-05-19T07:23:31.919Z,14.78
2019-05-19T07:26:21.623Z,14.94
2019-05-19T07:29:11.340Z,14.95
2019-05-19T07:32:01.091Z,15.14
2019-05-19T07:34:43.523Z,15.48
2019-05-19T07:37:33.253Z,15.94
2019-05-19T07:40:15.288Z,15.88
2019-05-19T07:43:05.007Z,16.22
2019-05-19T07:45:47.564Z,15.66
2019-05-19T07:48:37.299Z,15.00
2019-05-19T07:51:19.528Z,14.25
2019-05-19T07:54:09.235Z,13.97
2019-05-19T07:56:51.655Z,14.38
2019-05-19T07:59:41.349Z,14.64
2019-05-19T08:02:25.628Z,14.78
2019-05-19T08:05:15.368Z,15.27
2019-05-19T08:08:05.093Z,15.82
2019-05-19T08:10:47.847Z,15.38
2019-05-19T08:13:37.672Z,15.99
2019-05-19T08:16:27.437Z,16.14
2019-05-19T08:19:10.240Z,16.45
2019-05-19T08:21:59.967Z,16.31
2019-05-19T08:24:43.290Z,16.01
2019-05-19T08:27:33.068Z,16.24
2019-05-19T08:30:17.239Z,16.02
2019-05-19T08:33:06.969Z,15.89
2019-05-19T08:35:49.673Z,15.83
2019-05-19T08:38:31.640Z,15.34
2019-05-19T08:41:21.353Z,15.10
2019-05-19T08:47:14.222Z,15.20
2019-05-19T08:49:57.128Z,15.22
2019-05-19T08:52:47.067Z,15.36
2019-05-19T08:55:36.837Z,15.54
2019-05-19T08:58:26.633Z,15.78
2019-05-19T09:01:16.559Z,16.11
2019-05-19T09:04:06.395Z,16.20
2019-05-19T09:07:08.288Z,16.24
2019-05-19T09:09:51.135Z,16.33
2019-05-19T09:12:40.890Z,16.44
2019-05-19T09:15:30.654Z,16.52
2019-05-19T09:18:13.237Z,16.86
2019-05-19T09:21:03.030Z,17.26
2019-05-19T09:26:56.476Z,17.27
2019-05-19T09:29:39.046Z,17.29
2019-05-19T09:32:28.866Z,17.38
2019-05-19T09:35:18.779Z,17.43
2019-05-19T09:38:27.637Z,17.26
2019-05-19T09:41:17.444Z,16.78
2019-05-19T09:44:07.174Z,16.94
2019-05-19T09:46:56.896Z,17.33
2019-05-19T09:49:46.608Z,17.43
2019-05-19T09:52:36.351Z,17.63
2019-05-19T09:55:26.094Z,17.63
2019-05-19T09:58:08.388Z,17.67
2019-05-19T10:00:58.138Z,18.09
2019-05-19T10:03:42.335Z,17.83
2019-05-19T10:06:32.070Z,18.00
2019-05-19T10:09:20.880Z,18.44
2019-05-19T10:12:11.161Z,18.90
2019-05-19T10:15:01.063Z,19.05
2019-05-19T10:17:43.998Z,19.70
2019-05-19T10:20:34.369Z,19.64
2019-05-19T10:23:24.145Z,19.44
2019-05-19T10:26:14.492Z,19.31
2019-05-19T10:29:04.277Z,19.78
2019-05-19T10:31:54.560Z,20.05
2019-05-19T10:34:38.371Z,20.08
2019-05-19T10:37:28.160Z,19.92
2019-05-19T10:40:11.965Z,19.71
2019-05-19T10:42:42.652Z,19.46
2019-05-19T10:45:32.371Z,20.17
2019-05-19T10:48:22.103Z,19.91
2019-05-19T10:51:06.141Z,20.20
2019-05-19T10:53:56.440Z,20.51
2019-05-19T10:56:41.361Z,20.74
2019-05-19T10:59:31.651Z,21.29
2019-05-19T11:02:21.941Z,20.76
2019-05-19T11:05:05.077Z,20.60
2019-05-19T11:08:07.911Z,20.67
2019-05-19T11:10:50.569Z,20.59
2019-05-19T11:13:41.089Z,20.53
2019-05-19T11:16:24.193Z,20.51
2019-05-19T11:19:14.445Z,20.74
2019-05-19T11:21:57.727Z,20.33
2019-05-19T11:24:48.029Z,20.25
2019-05-19T11:27:31.472Z,20.55
2019-05-19T11:30:02.711Z,20.72
2019-05-19T11:32:52.990Z,20.77
2019-05-19T11:35:36.493Z,21.43
2019-05-19T11:38:26.837Z,21.64
2019-05-19T11:41:17.321Z,21.75
2019-05-19T11:44:07.709Z,21.80
2019-05-19T11:46:58.079Z,22.13
2019-05-19T11:49:48.505Z,22.65
2019-05-19T11:52:38.918Z,22.32
2019-05-19T11:55:48.410Z,22.43
2019-05-19T12:01:33.273Z,22.52
2019-05-19T12:04:23.547Z,22.28
2019-05-19T12:07:14.062Z,22.23
2019-05-19T12:09:56.919Z,22.42
2019-05-19T12:12:47.385Z,22.16
2019-05-19T12:18:41.868Z,21.65
2019-05-19T12:21:51.242Z,21.73
2019-05-19T12:24:35.354Z,21.57
2019-05-19T12:27:25.606Z,21.33
2019-05-19T12:30:09.329Z,21.51
2019-05-19T12:32:59.641Z,21.37
2019-05-19T12:35:42.194Z,21.38
2019-05-19T12:38:32.438Z,21.49
2019-05-19T12:41:15.354Z,21.57
2019-05-19T12:44:05.677Z,21.19
2019-05-19T12:46:48.907Z,21.30
2019-05-19T12:49:39.243Z,21.34
2019-05-19T12:55:24.454Z,20.65
2019-05-19T12:58:14.955Z,20.65
2019-05-19T13:04:11.000Z,20.23
2019-05-19T13:06:54.116Z,20.31
2019-05-19T13:09:44.442Z,20.42
2019-05-19T13:12:34.739Z,20.45
2019-05-19T13:15:25.219Z,20.72
2019-05-19T13:18:08.416Z,21.03
2019-05-19T13:20:58.737Z,21.27
2019-05-19T13:23:49.044Z,21.15
2019-05-19T13:26:55.270Z,20.93
2019-05-19T13:29:23.945Z,20.98
2019-05-19T13:38:37.083Z,21.08
2019-05-19T13:41:27.392Z,21.05
2019-05-19T13:44:10.763Z,21.14
2019-05-19T13:50:03.345Z,21.61
2019-05-19T13:52:53.662Z,21.45
2019-05-19T13:55:38.460Z,21.50
2019-05-19T14:01:28.565Z,21.64
2019-05-19T14:04:16.324Z,21.70
2019-05-19T14:10:01.651Z,21.23
2019-05-19T14:12:51.977Z,21.25
2019-05-19T14:18:38.840Z,21.03
2019-05-19T14:21:29.181Z,20.75
2019-05-19T14:24:11.959Z,20.95
2019-05-19T14:27:02.316Z,21.06
2019-05-19T14:29:45.810Z,20.76
2019-05-19T14:32:36.123Z,20.81
2019-05-19T14:35:26.395Z,20.96
2019-05-19T14:38:09.367Z,20.92
2019-05-19T14:40:59.775Z,20.53
2019-05-19T14:43:50.137Z,20.52
2019-05-19T14:49:45.602Z,20.16
2019-05-19T14:52:29.355Z,20.26
2019-05-19T14:55:19.725Z,20.53
2019-05-19T14:58:02.212Z,20.52
2019-05-19T15:00:52.455Z,20.54
2019-05-19T15:03:42.789Z,20.57
2019-05-19T15:06:25.729Z,20.90
2019-05-19T15:09:16.026Z,21.10
2019-05-19T15:12:06.393Z,20.87
2019-05-19T15:14:56.765Z,21.07
2019-05-19T15:23:20.718Z,21.52
2019-05-19T15:26:10.986Z,21.65
2019-05-19T15:28:54.018Z,21.99
2019-05-19T15:31:44.270Z,22.05
2019-05-19T15:34:27.740Z,22.07
2019-05-19T15:37:18.192Z,21.84
2019-05-19T15:40:00.723Z,21.32
2019-05-19T15:42:50.996Z,21.08
2019-05-19T15:45:34.122Z,20.88
2019-05-19T15:48:24.421Z,20.75
2019-05-19T15:51:07.118Z,20.60
2019-05-19T15:53:57.480Z,20.35
2019-05-19T15:56:40.515Z,20.28
2019-05-19T15:59:30.854Z,20.14
2019-05-19T16:02:21.148Z,20.29
2019-05-19T16:05:11.552Z,20.38
2019-05-19T16:07:54.568Z,20.44
2019-05-19T16:10:25.812Z,20.56
2019-05-19T16:13:16.178Z,20.46
2019-05-19T16:15:58.827Z,20.42
2019-05-19T16:18:49.083Z,20.17
2019-05-19T16:21:39.390Z,20.31
2019-05-19T16:24:29.736Z,20.10
2019-05-19T16:27:13.008Z,20.17
2019-05-19T16:32:58.638Z,20.37
2019-05-19T16:35:49.022Z,20.19
2019-05-19T16:38:38.783Z,19.87
2019-05-19T16:41:29.119Z,19.87
2019-05-19T16:44:18.867Z,19.97
2019-05-19T16:47:08.634Z,19.98
2019-05-19T16:49:58.902Z,19.93
2019-05-19T16:52:49.174Z,19.77
2019-05-19T16:55:38.904Z,19.78
2019-05-19T16:58:21.956Z,19.75
2019-05-19T17:01:05.249Z,19.82
2019-05-19T17:03:54.981Z,19.77
2019-05-19T17:06:44.798Z,19.54
2019-05-19T17:09:34.631Z,19.35
2019-05-19T17:12:24.966Z,19.19
2019-05-19T17:15:14.928Z,18.99
2019-05-19T17:18:08.045Z,18.89
2019-05-19T17:20:49.488Z,18.81
2019-05-19T17:23:39.311Z,18.73
2019-05-19T17:29:25.637Z,18.37
2019-05-19T17:32:05.641Z,18.34
2019-05-19T17:34:48.928Z,18.35
2019-05-19T17:37:38.659Z,18.39
2019-05-19T17:40:22.043Z,18.20
2019-05-19T17:43:11.875Z,18.26
2019-05-19T17:45:56.963Z,18.02
2019-05-19T17:48:47.340Z,18.01
2019-05-19T17:51:37.708Z,18.15
2019-05-19T17:54:20.312Z,17.81
2019-05-19T17:57:10.179Z,17.74
2019-05-19T18:00:12.320Z,17.63
2019-05-19T18:03:02.127Z,17.41
2019-05-19T18:05:51.944Z,17.21
2019-05-19T18:08:34.241Z,16.54
2019-05-19T18:11:24.145Z,15.88
2019-05-19T18:14:06.149Z,15.43
2019-05-19T18:16:55.861Z,15.01
2019-05-19T18:19:38.064Z,14.66
2019-05-19T18:22:27.853Z,14.37
2019-05-19T18:25:12.627Z,13.92
2019-05-19T18:27:43.399Z,13.33
2019-05-19T18:30:33.165Z,13.17
2019-05-19T18:33:23.242Z,13.01
2019-05-19T18:36:06.816Z,12.76
2019-05-19T18:38:56.980Z,12.70
2019-05-19T18:41:28.126Z,12.97
2019-05-19T18:44:18.264Z,12.92
2019-05-19T18:46:49.046Z,13.41
2019-05-19T18:49:38.905Z,13.49
2019-05-19T18:52:21.382Z,13.55
2019-05-19T18:55:11.430Z,13.76
2019-05-19T18:57:54.290Z,13.81
2019-05-19T19:00:44.050Z,13.71
2019-05-19T19:03:26.327Z,13.86
2019-05-19T19:06:16.106Z,13.99
2019-05-19T19:08:59.009Z,13.94
2019-05-19T19:11:48.958Z,13.87
2019-05-19T19:14:31.285Z,13.79
2019-05-19T19:17:21.103Z,13.92
2019-05-19T19:20:07.332Z,13.96
2019-05-19T19:28:57.852Z,14.23
2019-05-19T19:32:06.440Z,14.12
2019-05-19T19:40:45.037Z,13.91
2019-05-19T19:43:15.815Z,13.91
2019-05-19T19:46:06.918Z,13.91
2019-05-19T19:48:50.912Z,14.04
2019-05-19T19:51:40.848Z,14.04
2019-05-19T19:54:50.128Z,13.99
2019-05-19T19:57:35.082Z,13.74
2019-05-19T20:03:22.776Z,13.66
2019-05-19T20:06:10.827Z,13.51
2019-05-19T20:08:54.611Z,13.10
2019-05-19T20:14:54.855Z,13.11
2019-05-19T20:17:39.433Z,13.05
2019-05-19T20:20:29.474Z,12.87
2019-05-19T20:23:19.364Z,13.14
2019-05-19T20:26:09.490Z,13.15
2019-05-19T20:28:59.702Z,13.15
2019-05-19T20:31:49.888Z,13.22
2019-05-19T20:34:39.744Z,13.14
2019-05-19T20:37:22.155Z,13.06
2019-05-19T20:40:12.049Z,13.14
2019-05-19T20:43:02.700Z,13.36
2019-05-19T20:45:46.155Z,13.26
2019-05-19T20:48:55.692Z,13.12
2019-05-19T20:51:45.569Z,13.37
2019-05-19T20:54:36.125Z,13.22
2019-05-19T20:57:26.136Z,13.32
2019-05-19T21:00:16.485Z,13.50
2019-05-19T21:06:10.084Z,13.54
2019-05-19T21:08:53.912Z,13.34
2019-05-19T21:11:39.057Z,13.62
2019-05-19T21:14:22.336Z,13.54
2019-05-19T21:17:12.165Z,13.67
2019-05-19T21:20:21.915Z,13.70
2019-05-19T21:25:43.854Z,13.72
2019-05-19T21:28:35.645Z,13.76
2019-05-19T21:31:18.295Z,13.77
2019-05-19T21:34:08.587Z,13.42
2019-05-19T21:36:51.873Z,13.50
2019-05-19T21:39:41.672Z,13.58
2019-05-19T21:42:25.159Z,13.57
2019-05-19T21:48:01.838Z,13.41
2019-05-19T21:50:32.599Z,13.58
2019-05-19T21:53:22.353Z,13.70
2019-05-19T21:56:12.158Z,13.69
2019-05-19T21:58:54.174Z,13.67
2019-05-19T22:04:45.364Z,13.76
2019-05-19T22:07:53.887Z,13.56
2019-05-19T22:10:36.143Z,13.37
2019-05-19T22:13:25.963Z,13.29
2019-05-19T22:16:13.113Z,13.18
2019-05-19T22:19:00.207Z,13.14
2019-05-19T22:21:42.527Z,13.21
2019-05-19T22:24:32.287Z,13.21
2019-05-19T22:27:16.685Z,13.29
2019-05-19T22:33:01.367Z,13.31
2019-05-19T22:35:51.141Z,13.42
2019-05-19T22:38:53.647Z,13.44
2019-05-19T22:41:35.745Z,13.45
2019-05-19T22:44:20.252Z,13.45
2019-05-19T22:50:12.931Z,13.30
2019-05-19T22:52:43.577Z,13.22
2019-05-19T22:55:33.291Z,13.29
2019-05-19T22:58:23.016Z,13.37
2019-05-19T23:01:04.984Z,13.33
2019-05-19T23:03:54.717Z,13.27
2019-05-19T23:06:37.248Z,13.42
2019-05-19T23:09:27.002Z,13.44
2019-05-19T23:12:09.113Z,13.55
2019-05-19T23:14:58.886Z,13.51
2019-05-19T23:17:41.430Z,13.44
2019-05-19T23:20:31.186Z,13.53
2019-05-19T23:23:13.252Z,13.40
2019-05-19T23:26:03.040Z,13.53
2019-05-19T23:28:45.609Z,13.57
2019-05-19T23:31:35.436Z,13.58
2019-05-19T23:34:19.362Z,13.57
2019-05-19T23:37:09.062Z,13.62
2019-05-19T23:39:54.040Z,13.65
2019-05-19T23:42:42.626Z,13.63
2019-05-19T23:45:25.862Z,13.60
2019-05-19T23:48:08.257Z,13.62
2019-05-19T23:50:58.050Z,13.71
